sensor_id;sensor_type;location;lat;lon;timestamp;pressure;altitude;pressure_sealevel;temperature;humidity
24031;BME280;12240;51.142;22.486;2024-02-15T00:02:35;-14346.11;;;-142.79;100.00
24031;BME280;12240;51.142;22.486;2024-02-15T00:05:02;-14346.11;;;-142.79;100.00
24031;BME280;12240;51.142;22.486;2024-02-15T00:07:29;-14346.11;;;-142.79;100.00
24031;BME280;12240;51.142;22.486;2024-02-15T00:09:55;-14346.11;;;-142.79;100.00
24031;BME280;12240;51.142;22.486;2024-02-15T00:12:22;-14346.11;;;-142.79;100.00
24031;BME280;12240;51.142;22.486;2024-02-15T00:14:49;-14346.11;;;-142.79;100.00
24031;BME280;12240;51.142;22.486;2024-02-15T00:17:16;-14346.11;;;-142.79;100.00
24031;BME280;12240;51.142;22.486;2024-02-15T00:19:43;-14346.11;;;-142.79;100.00
24031;BME280;12240;51.142;22.486;2024-02-15T00:22:10;-14346.11;;;-142.79;100.00
24031;BME280;12240;51.142;22.486;2024-02-15T00:24:37;-14346.11;;;-142.79;100.00
24031;BME280;12240;51.142;22.486;2024-02-15T00:27:08;-14346.11;;;-142.79;100.00
24031;BME280;12240;51.142;22.486;2024-02-15T00:29:35;-14346.11;;;-142.79;100.00
24031;BME280;12240;51.142;22.486;2024-02-15T00:32:02;-14346.11;;;-142.79;100.00
24031;BME280;12240;51.142;22.486;2024-02-15T00:34:31;-14346.11;;;-142.79;100.00
24031;BME280;12240;51.142;22.486;2024-02-15T00:36:59;-14346.11;;;-142.79;100.00
24031;BME280;12240;51.142;22.486;2024-02-15T00:39:26;-14346.11;;;-142.79;100.00
24031;BME280;12240;51.142;22.486;2024-02-15T00:41:53;-14346.11;;;-142.79;100.00
24031;BME280;12240;51.142;22.486;2024-02-15T00:44:20;-14346.11;;;-142.79;100.00
24031;BME280;12240;51.142;22.486;2024-02-15T00:46:47;-14346.11;;;-142.79;100.00
24031;BME280;12240;51.142;22.486;2024-02-15T00:49:15;-14346.11;;;-142.79;100.00
24031;BME280;12240;51.142;22.486;2024-02-15T00:51:42;-14346.11;;;-142.79;100.00
24031;BME280;12240;51.142;22.486;2024-02-15T00:54:09;-14346.11;;;-142.79;100.00
24031;BME280;12240;51.142;22.486;2024-02-15T00:56:36;-14346.11;;;-142.79;100.00
24031;BME280;12240;51.142;22.486;2024-02-15T00:59:02;-14346.11;;;-142.79;100.00
24031;BME280;12240;51.142;22.486;2024-02-15T01:01:30;-14346.11;;;-142.79;100.00
24031;BME280;12240;51.142;22.486;2024-02-15T01:03:57;-14346.11;;;-142.79;100.00
24031;BME280;12240;51.142;22.486;2024-02-15T01:06:24;-14346.11;;;-142.79;100.00
24031;BME280;12240;51.142;22.486;2024-02-15T01:08:51;-14346.11;;;-142.79;100.00
24031;BME280;12240;51.142;22.486;2024-02-15T01:11:18;-14346.11;;;-142.79;100.00
24031;BME280;12240;51.142;22.486;2024-02-15T01:13:45;-14346.11;;;-142.79;100.00
24031;BME280;12240;51.142;22.486;2024-02-15T01:16:12;-14346.11;;;-142.79;100.00
24031;BME280;12240;51.142;22.486;2024-02-15T01:18:39;-14346.11;;;-142.79;100.00
24031;BME280;12240;51.142;22.486;2024-02-15T01:21:06;-14346.11;;;-142.79;100.00
24031;BME280;12240;51.142;22.486;2024-02-15T01:23:33;-14346.11;;;-142.79;100.00
24031;BME280;12240;51.142;22.486;2024-02-15T01:26:03;-14346.11;;;-142.79;100.00
24031;BME280;12240;51.142;22.486;2024-02-15T01:28:31;-14346.11;;;-142.79;100.00
24031;BME280;12240;51.142;22.486;2024-02-15T01:30:58;-14346.11;;;-142.79;100.00
24031;BME280;12240;51.142;22.486;2024-02-15T01:33:25;-14346.11;;;-142.79;100.00
24031;BME280;12240;51.142;22.486;2024-02-15T01:35:54;-14346.11;;;-142.79;100.00
24031;BME280;12240;51.142;22.486;2024-02-15T01:38:21;-14346.11;;;-142.79;100.00
24031;BME280;12240;51.142;22.486;2024-02-15T01:40:48;-14346.11;;;-142.79;100.00
24031;BME280;12240;51.142;22.486;2024-02-15T01:43:15;-14346.11;;;-142.79;100.00
24031;BME280;12240;51.142;22.486;2024-02-15T01:45:42;-14346.11;;;-142.79;100.00
24031;BME280;12240;51.142;22.486;2024-02-15T01:48:09;-14346.11;;;-142.79;100.00
24031;BME280;12240;51.142;22.486;2024-02-15T01:50:37;-14346.11;;;-142.79;100.00
24031;BME280;12240;51.142;22.486;2024-02-15T01:53:07;-14346.11;;;-142.79;100.00
24031;BME280;12240;51.142;22.486;2024-02-15T01:55:35;-14346.11;;;-142.79;100.00
24031;BME280;12240;51.142;22.486;2024-02-15T01:58:03;-14346.11;;;-142.79;100.00
24031;BME280;12240;51.142;22.486;2024-02-15T02:00:30;-14346.11;;;-142.79;100.00
24031;BME280;12240;51.142;22.486;2024-02-15T02:02:57;-14346.11;;;-142.79;100.00
24031;BME280;12240;51.142;22.486;2024-02-15T02:05:30;-14346.11;;;-142.79;100.00
24031;BME280;12240;51.142;22.486;2024-02-15T02:07:58;-14346.11;;;-142.79;100.00
24031;BME280;12240;51.142;22.486;2024-02-15T02:10:28;-14346.11;;;-142.79;100.00
24031;BME280;12240;51.142;22.486;2024-02-15T02:13:00;-14346.11;;;-142.79;100.00
24031;BME280;12240;51.142;22.486;2024-02-15T02:15:33;-14346.11;;;-142.79;100.00
24031;BME280;12240;51.142;22.486;2024-02-15T02:18:00;-14346.11;;;-142.79;100.00
24031;BME280;12240;51.142;22.486;2024-02-15T02:20:27;-14346.11;;;-142.79;100.00
24031;BME280;12240;51.142;22.486;2024-02-15T02:23:03;-14346.11;;;-142.79;100.00
24031;BME280;12240;51.142;22.486;2024-02-15T02:25:34;-14346.11;;;-142.79;100.00
24031;BME280;12240;51.142;22.486;2024-02-15T02:28:01;-14346.11;;;-142.79;100.00
24031;BME280;12240;51.142;22.486;2024-02-15T02:30:28;-14346.11;;;-142.79;100.00
24031;BME280;12240;51.142;22.486;2024-02-15T02:32:59;-14346.11;;;-142.79;100.00
24031;BME280;12240;51.142;22.486;2024-02-15T02:35:26;-14346.11;;;-142.79;100.00
24031;BME280;12240;51.142;22.486;2024-02-15T02:37:54;-14346.11;;;-142.79;100.00
24031;BME280;12240;51.142;22.486;2024-02-15T02:40:22;-14346.11;;;-142.79;100.00
24031;BME280;12240;51.142;22.486;2024-02-15T02:42:55;-14346.11;;;-142.79;100.00
24031;BME280;12240;51.142;22.486;2024-02-15T02:45:23;-14346.11;;;-142.79;100.00
24031;BME280;12240;51.142;22.486;2024-02-15T02:47:50;-14346.11;;;-142.79;100.00
24031;BME280;12240;51.142;22.486;2024-02-15T02:57:35;-14293.70;;;-142.79;100.00
24031;BME280;12240;51.142;22.486;2024-02-15T03:03:06;-14346.11;;;-142.79;100.00
24031;BME280;12240;51.142;22.486;2024-02-15T03:05:32;-14346.11;;;-142.79;100.00
24031;BME280;12240;51.142;22.486;2024-02-15T03:07:58;-14346.11;;;-142.79;100.00
24031;BME280;12240;51.142;22.486;2024-02-15T03:10:24;-14346.11;;;-142.79;100.00
24031;BME280;12240;51.142;22.486;2024-02-15T03:12:50;-14346.11;;;-142.79;100.00
24031;BME280;12240;51.142;22.486;2024-02-15T03:15:16;-14346.11;;;-142.79;100.00
24031;BME280;12240;51.142;22.486;2024-02-15T03:17:46;-14346.11;;;-142.79;100.00
24031;BME280;12240;51.142;22.486;2024-02-15T03:20:14;-14346.11;;;-142.79;100.00
24031;BME280;12240;51.142;22.486;2024-02-15T03:22:57;-14346.11;;;-142.79;100.00
24031;BME280;12240;51.142;22.486;2024-02-15T03:25:24;-14346.11;;;-142.79;100.00
24031;BME280;12240;51.142;22.486;2024-02-15T03:27:58;-14346.11;;;-142.79;100.00
24031;BME280;12240;51.142;22.486;2024-02-15T03:30:29;-14346.11;;;-142.79;100.00
24031;BME280;12240;51.142;22.486;2024-02-15T03:32:58;-14346.11;;;-142.79;100.00
24031;BME280;12240;51.142;22.486;2024-02-15T03:35:25;-14346.11;;;-142.79;100.00
24031;BME280;12240;51.142;22.486;2024-02-15T03:37:52;-14346.11;;;-142.79;100.00
24031;BME280;12240;51.142;22.486;2024-02-15T03:40:20;-14346.11;;;-142.79;100.00
24031;BME280;12240;51.142;22.486;2024-02-15T03:42:46;-14346.11;;;-142.79;100.00
24031;BME280;12240;51.142;22.486;2024-02-15T03:45:13;-14346.11;;;-142.79;100.00
24031;BME280;12240;51.142;22.486;2024-02-15T03:47:39;-14346.11;;;-142.79;100.00
24031;BME280;12240;51.142;22.486;2024-02-15T03:50:07;-14346.11;;;-142.79;100.00
24031;BME280;12240;51.142;22.486;2024-02-15T03:52:37;-14346.11;;;-142.79;100.00
24031;BME280;12240;51.142;22.486;2024-02-15T03:55:05;-14346.11;;;-142.79;100.00
24031;BME280;12240;51.142;22.486;2024-02-15T03:57:33;-14346.11;;;-142.79;100.00
24031;BME280;12240;51.142;22.486;2024-02-15T03:59:59;-14346.11;;;-142.79;100.00
24031;BME280;12240;51.142;22.486;2024-02-15T04:02:26;-14346.11;;;-142.79;100.00
24031;BME280;12240;51.142;22.486;2024-02-15T04:04:53;-14346.11;;;-142.79;100.00
24031;BME280;12240;51.142;22.486;2024-02-15T04:07:24;-14346.11;;;-142.79;100.00
24031;BME280;12240;51.142;22.486;2024-02-15T04:09:52;-14346.11;;;-142.79;100.00
24031;BME280;12240;51.142;22.486;2024-02-15T04:12:19;-14346.11;;;-142.79;100.00
24031;BME280;12240;51.142;22.486;2024-02-15T04:14:45;-14346.11;;;-142.79;100.00
24031;BME280;12240;51.142;22.486;2024-02-15T04:17:12;-14346.11;;;-142.79;100.00
24031;BME280;12240;51.142;22.486;2024-02-15T04:19:44;-14346.11;;;-142.79;100.00
24031;BME280;12240;51.142;22.486;2024-02-15T04:22:13;-14346.11;;;-142.79;100.00
24031;BME280;12240;51.142;22.486;2024-02-15T04:24:45;-14346.11;;;-142.79;100.00
24031;BME280;12240;51.142;22.486;2024-02-15T04:27:11;-14346.11;;;-142.79;100.00
24031;BME280;12240;51.142;22.486;2024-02-15T04:29:42;-14346.11;;;-142.79;100.00
24031;BME280;12240;51.142;22.486;2024-02-15T04:32:10;-14346.11;;;-142.79;100.00
24031;BME280;12240;51.142;22.486;2024-02-15T04:34:37;-14346.11;;;-142.79;100.00
24031;BME280;12240;51.142;22.486;2024-02-15T04:37:04;-14346.11;;;-142.79;100.00
24031;BME280;12240;51.142;22.486;2024-02-15T04:39:35;-14346.11;;;-142.79;100.00
24031;BME280;12240;51.142;22.486;2024-02-15T04:42:04;-14346.11;;;-142.79;100.00
24031;BME280;12240;51.142;22.486;2024-02-15T04:44:40;-14346.11;;;-142.79;100.00
24031;BME280;12240;51.142;22.486;2024-02-15T04:47:06;-14346.11;;;-142.79;100.00
24031;BME280;12240;51.142;22.486;2024-02-15T04:49:33;-14346.11;;;-142.79;100.00
24031;BME280;12240;51.142;22.486;2024-02-15T04:51:59;-14346.11;;;-142.79;100.00
24031;BME280;12240;51.142;22.486;2024-02-15T04:54:29;-14346.11;;;-142.79;100.00
24031;BME280;12240;51.142;22.486;2024-02-15T04:56:55;-14346.11;;;-142.79;100.00
24031;BME280;12240;51.142;22.486;2024-02-15T04:59:22;-14346.11;;;-142.79;100.00
24031;BME280;12240;51.142;22.486;2024-02-15T05:01:54;-14346.11;;;-142.79;100.00
24031;BME280;12240;51.142;22.486;2024-02-15T05:04:22;-14346.11;;;-142.79;100.00
24031;BME280;12240;51.142;22.486;2024-02-15T05:06:50;-14346.11;;;-142.79;100.00
24031;BME280;12240;51.142;22.486;2024-02-15T05:09:17;-14346.11;;;-142.79;100.00
24031;BME280;12240;51.142;22.486;2024-02-15T05:11:44;-14346.11;;;-142.79;100.00
24031;BME280;12240;51.142;22.486;2024-02-15T05:14:14;-14346.11;;;-142.79;100.00
24031;BME280;12240;51.142;22.486;2024-02-15T05:16:49;-14346.11;;;-142.79;100.00
24031;BME280;12240;51.142;22.486;2024-02-15T05:19:16;-14346.11;;;-142.79;100.00
24031;BME280;12240;51.142;22.486;2024-02-15T05:21:43;-14346.11;;;-142.79;100.00
24031;BME280;12240;51.142;22.486;2024-02-15T05:24:13;-14346.11;;;-142.79;100.00
24031;BME280;12240;51.142;22.486;2024-02-15T05:26:40;-14346.11;;;-142.79;99.88
24031;BME280;12240;51.142;22.486;2024-02-15T05:29:10;-14346.11;;;-142.79;99.03
24031;BME280;12240;51.142;22.486;2024-02-15T05:31:37;-14346.11;;;-142.79;98.63
24031;BME280;12240;51.142;22.486;2024-02-15T05:34:05;-14346.11;;;-142.79;98.37
24031;BME280;12240;51.142;22.486;2024-02-15T05:36:35;-14346.11;;;-142.79;98.38
24031;BME280;12240;51.142;22.486;2024-02-15T05:39:01;-14346.11;;;-142.79;98.80
24031;BME280;12240;51.142;22.486;2024-02-15T05:41:28;-14346.11;;;-142.79;100.00
24031;BME280;12240;51.142;22.486;2024-02-15T05:43:56;-14346.11;;;-142.79;100.00
24031;BME280;12240;51.142;22.486;2024-02-15T05:46:23;-14346.11;;;-142.79;100.00
24031;BME280;12240;51.142;22.486;2024-02-15T05:48:50;-14346.11;;;-142.79;100.00
24031;BME280;12240;51.142;22.486;2024-02-15T05:51:19;-14346.11;;;-142.79;100.00
24031;BME280;12240;51.142;22.486;2024-02-15T05:53:45;-14346.11;;;-142.79;100.00
24031;BME280;12240;51.142;22.486;2024-02-15T05:56:12;-14346.11;;;-142.79;100.00
24031;BME280;12240;51.142;22.486;2024-02-15T05:58:39;-14346.11;;;-142.79;100.00
24031;BME280;12240;51.142;22.486;2024-02-15T06:01:05;-14346.11;;;-142.79;100.00
24031;BME280;12240;51.142;22.486;2024-02-15T06:03:35;-14346.11;;;-142.79;100.00
24031;BME280;12240;51.142;22.486;2024-02-15T06:06:05;-14346.11;;;-142.79;100.00
24031;BME280;12240;51.142;22.486;2024-02-15T06:08:36;-14346.11;;;-142.79;100.00
24031;BME280;12240;51.142;22.486;2024-02-15T06:11:02;-14346.11;;;-142.79;100.00
24031;BME280;12240;51.142;22.486;2024-02-15T06:13:32;-14346.11;;;-142.79;100.00
24031;BME280;12240;51.142;22.486;2024-02-15T06:15:59;-14346.11;;;-142.79;100.00
24031;BME280;12240;51.142;22.486;2024-02-15T06:18:28;-14346.11;;;-142.79;100.00
24031;BME280;12240;51.142;22.486;2024-02-15T06:20:55;-14346.11;;;-142.79;100.00
24031;BME280;12240;51.142;22.486;2024-02-15T06:23:26;-14346.11;;;-142.79;100.00
24031;BME280;12240;51.142;22.486;2024-02-15T06:25:55;-14346.11;;;-142.79;100.00
24031;BME280;12240;51.142;22.486;2024-02-15T06:28:22;-14346.11;;;-142.79;99.68
24031;BME280;12240;51.142;22.486;2024-02-15T06:31:07;-14346.11;;;-142.79;98.05
24031;BME280;12240;51.142;22.486;2024-02-15T06:33:52;-14346.11;;;-142.79;97.12
24031;BME280;12240;51.142;22.486;2024-02-15T06:36:45;-14346.11;;;-142.79;96.26
24031;BME280;12240;51.142;22.486;2024-02-15T06:39:30;-14346.11;;;-142.79;95.30
24031;BME280;12240;51.142;22.486;2024-02-15T06:42:11;-14346.11;;;-142.79;96.11
24031;BME280;12240;51.142;22.486;2024-02-15T06:44:40;-14346.11;;;-142.79;97.22
24031;BME280;12240;51.142;22.486;2024-02-15T06:47:06;-14346.11;;;-142.79;95.29
24031;BME280;12240;51.142;22.486;2024-02-15T06:49:34;-14346.11;;;-142.79;94.88
24031;BME280;12240;51.142;22.486;2024-02-15T06:52:00;-14346.11;;;-142.79;95.23
24031;BME280;12240;51.142;22.486;2024-02-15T06:54:28;-14346.11;;;-142.79;94.44
24031;BME280;12240;51.142;22.486;2024-02-15T06:56:54;-14346.11;;;-142.79;93.33
24031;BME280;12240;51.142;22.486;2024-02-15T06:59:21;-14346.11;;;-142.79;90.79
24031;BME280;12240;51.142;22.486;2024-02-15T07:01:51;-14346.11;;;-142.79;90.13
24031;BME280;12240;51.142;22.486;2024-02-15T07:04:21;-14346.11;;;-142.79;90.07
24031;BME280;12240;51.142;22.486;2024-02-15T07:06:47;-14346.11;;;-142.79;88.21
24031;BME280;12240;51.142;22.486;2024-02-15T07:09:15;-14346.11;;;-142.79;86.98
24031;BME280;12240;51.142;22.486;2024-02-15T07:11:43;-14346.11;;;-142.79;87.89
24031;BME280;12240;51.142;22.486;2024-02-15T07:14:10;-14346.11;;;-142.79;88.88
24031;BME280;12240;51.142;22.486;2024-02-15T07:16:36;-14346.11;;;-142.79;91.71
24031;BME280;12240;51.142;22.486;2024-02-15T07:19:06;-14346.11;;;-142.79;91.54
24031;BME280;12240;51.142;22.486;2024-02-15T07:21:33;-14346.11;;;-142.79;91.10
24031;BME280;12240;51.142;22.486;2024-02-15T07:23:59;-14346.11;;;-142.79;92.53
24031;BME280;12240;51.142;22.486;2024-02-15T07:26:25;-14346.11;;;-142.79;93.54
24031;BME280;12240;51.142;22.486;2024-02-15T07:28:53;-14346.11;;;-142.79;94.17
24031;BME280;12240;51.142;22.486;2024-02-15T07:31:20;-14346.11;;;-142.79;95.50
24031;BME280;12240;51.142;22.486;2024-02-15T07:33:48;-14346.11;;;-142.79;96.32
24031;BME280;12240;51.142;22.486;2024-02-15T07:36:18;-14346.11;;;-142.79;94.92
24031;BME280;12240;51.142;22.486;2024-02-15T07:38:45;-14346.11;;;-142.79;96.48
24031;BME280;12240;51.142;22.486;2024-02-15T07:41:15;-14346.11;;;-142.79;96.10
24031;BME280;12240;51.142;22.486;2024-02-15T07:43:41;-14346.11;;;-142.79;94.00
24031;BME280;12240;51.142;22.486;2024-02-15T07:46:07;-14346.11;;;-142.79;91.90
24031;BME280;12240;51.142;22.486;2024-02-15T07:48:33;-14346.11;;;-142.79;89.69
24031;BME280;12240;51.142;22.486;2024-02-15T07:50:59;-14346.11;;;-142.79;88.24
24031;BME280;12240;51.142;22.486;2024-02-15T07:53:26;-14346.11;;;-142.79;86.00
24031;BME280;12240;51.142;22.486;2024-02-15T07:55:52;-14346.11;;;-142.79;83.03
24031;BME280;12240;51.142;22.486;2024-02-15T07:58:18;-14346.11;;;-142.79;81.70
24031;BME280;12240;51.142;22.486;2024-02-15T08:00:45;-14346.11;;;-142.79;81.09
24031;BME280;12240;51.142;22.486;2024-02-15T08:03:11;-14346.11;;;-142.79;79.44
24031;BME280;12240;51.142;22.486;2024-02-15T08:05:37;-14346.11;;;-142.79;81.45
24031;BME280;12240;51.142;22.486;2024-02-15T08:08:04;-14346.11;;;-142.79;84.17
24031;BME280;12240;51.142;22.486;2024-02-15T08:10:30;-14346.11;;;-142.79;85.91
24031;BME280;12240;51.142;22.486;2024-02-15T08:12:56;-14346.11;;;-142.79;85.17
24031;BME280;12240;51.142;22.486;2024-02-15T08:15:23;-14346.11;;;-142.79;87.08
24031;BME280;12240;51.142;22.486;2024-02-15T08:17:50;-14346.11;;;-142.79;86.35
24031;BME280;12240;51.142;22.486;2024-02-15T08:20:16;-14346.11;;;-142.79;86.22
24031;BME280;12240;51.142;22.486;2024-02-15T08:22:48;-14346.11;;;-142.79;87.37
24031;BME280;12240;51.142;22.486;2024-02-15T08:25:15;-14346.11;;;-142.79;87.78
24031;BME280;12240;51.142;22.486;2024-02-15T08:27:43;-14346.11;;;-142.79;86.55
24031;BME280;12240;51.142;22.486;2024-02-15T08:30:11;-14346.11;;;-142.79;85.75
24031;BME280;12240;51.142;22.486;2024-02-15T08:32:38;-14346.11;;;-142.79;86.11
24031;BME280;12240;51.142;22.486;2024-02-15T08:35:06;-14346.11;;;-142.79;86.18
24031;BME280;12240;51.142;22.486;2024-02-15T08:37:32;-14346.11;;;-142.79;87.29
24031;BME280;12240;51.142;22.486;2024-02-15T08:40:03;-14346.11;;;-142.79;86.94
24031;BME280;12240;51.142;22.486;2024-02-15T08:42:30;-14346.11;;;-142.79;87.08
24031;BME280;12240;51.142;22.486;2024-02-15T08:44:57;-14346.11;;;-142.79;88.11
24031;BME280;12240;51.142;22.486;2024-02-15T08:47:25;-14346.11;;;-142.79;86.58
24031;BME280;12240;51.142;22.486;2024-02-15T08:49:51;-14346.11;;;-142.79;84.44
24031;BME280;12240;51.142;22.486;2024-02-15T08:52:17;-14346.11;;;-142.79;83.62
24031;BME280;12240;51.142;22.486;2024-02-15T08:54:44;-14346.11;;;-142.79;83.00
24031;BME280;12240;51.142;22.486;2024-02-15T08:57:10;-14346.11;;;-142.79;82.08
24031;BME280;12240;51.142;22.486;2024-02-15T08:59:39;-14346.11;;;-142.79;83.21
24031;BME280;12240;51.142;22.486;2024-02-15T09:02:05;-14346.11;;;-142.79;84.70
24031;BME280;12240;51.142;22.486;2024-02-15T09:04:31;-14346.11;;;-142.79;85.04
24031;BME280;12240;51.142;22.486;2024-02-15T09:06:58;-14346.11;;;-142.79;84.12
24031;BME280;12240;51.142;22.486;2024-02-15T09:09:24;-14346.11;;;-142.79;84.96
24031;BME280;12240;51.142;22.486;2024-02-15T09:11:50;-14346.11;;;-142.79;82.34
24031;BME280;12240;51.142;22.486;2024-02-15T09:14:16;-14346.11;;;-142.79;82.39
24031;BME280;12240;51.142;22.486;2024-02-15T09:16:42;-14346.11;;;-142.79;82.02
24031;BME280;12240;51.142;22.486;2024-02-15T09:19:08;-14346.11;;;-142.79;81.70
24031;BME280;12240;51.142;22.486;2024-02-15T09:21:35;-14346.11;;;-142.79;82.41
24031;BME280;12240;51.142;22.486;2024-02-15T09:24:02;-14346.11;;;-142.79;81.93
24031;BME280;12240;51.142;22.486;2024-02-15T09:26:28;-14346.11;;;-142.79;83.31
24031;BME280;12240;51.142;22.486;2024-02-15T09:28:55;-14346.11;;;-142.79;81.68
24031;BME280;12240;51.142;22.486;2024-02-15T09:31:21;-14346.11;;;-142.79;80.52
24031;BME280;12240;51.142;22.486;2024-02-15T09:33:47;-14346.11;;;-142.79;80.61
24031;BME280;12240;51.142;22.486;2024-02-15T09:36:13;-14346.11;;;-142.79;81.41
24031;BME280;12240;51.142;22.486;2024-02-15T09:38:41;-14346.11;;;-142.79;80.69
24031;BME280;12240;51.142;22.486;2024-02-15T09:41:07;-14346.11;;;-142.79;79.21
24031;BME280;12240;51.142;22.486;2024-02-15T09:43:35;-14346.11;;;-142.79;80.84
24031;BME280;12240;51.142;22.486;2024-02-15T09:46:01;-14346.11;;;-142.79;83.11
24031;BME280;12240;51.142;22.486;2024-02-15T09:48:32;-14346.11;;;-142.79;82.37
24031;BME280;12240;51.142;22.486;2024-02-15T09:50:59;-14346.11;;;-142.79;81.80
24031;BME280;12240;51.142;22.486;2024-02-15T09:53:28;-14346.11;;;-142.79;81.50
24031;BME280;12240;51.142;22.486;2024-02-15T09:55:54;-14346.11;;;-142.79;80.47
24031;BME280;12240;51.142;22.486;2024-02-15T09:58:21;-14346.11;;;-142.79;79.85
24031;BME280;12240;51.142;22.486;2024-02-15T10:00:51;-14346.11;;;-142.79;78.23
24031;BME280;12240;51.142;22.486;2024-02-15T10:03:18;-14346.11;;;-142.79;78.37
24031;BME280;12240;51.142;22.486;2024-02-15T10:05:48;-14346.11;;;-142.79;76.51
24031;BME280;12240;51.142;22.486;2024-02-15T10:08:15;-14346.11;;;-142.79;76.81
24031;BME280;12240;51.142;22.486;2024-02-15T10:10:41;-14346.11;;;-142.79;78.13
24031;BME280;12240;51.142;22.486;2024-02-15T10:13:12;-14346.11;;;-142.79;76.27
24031;BME280;12240;51.142;22.486;2024-02-15T10:15:39;-14346.11;;;-142.79;76.55
24031;BME280;12240;51.142;22.486;2024-02-15T10:18:10;-14346.11;;;-142.79;75.73
24031;BME280;12240;51.142;22.486;2024-02-15T10:20:38;-14346.11;;;-142.79;73.51
24031;BME280;12240;51.142;22.486;2024-02-15T10:23:10;-14346.11;;;-142.79;73.37
24031;BME280;12240;51.142;22.486;2024-02-15T10:25:38;-14346.11;;;-142.79;72.57
24031;BME280;12240;51.142;22.486;2024-02-15T10:28:06;-14346.11;;;-142.79;71.14
24031;BME280;12240;51.142;22.486;2024-02-15T10:30:37;-14346.11;;;-142.79;72.13
24031;BME280;12240;51.142;22.486;2024-02-15T10:33:04;-14346.11;;;-142.79;71.29
24031;BME280;12240;51.142;22.486;2024-02-15T10:35:31;-14345.80;;;-142.79;69.94
24031;BME280;12240;51.142;22.486;2024-02-15T10:38:10;-14345.49;;;-142.79;70.03
24031;BME280;12240;51.142;22.486;2024-02-15T10:40:38;-14345.80;;;-142.79;70.52
24031;BME280;12240;51.142;22.486;2024-02-15T10:43:07;-14345.80;;;-142.79;71.13
24031;BME280;12240;51.142;22.486;2024-02-15T10:45:35;-14346.11;;;-142.79;70.29
24031;BME280;12240;51.142;22.486;2024-02-15T10:48:12;-14346.11;;;-142.79;69.69
24031;BME280;12240;51.142;22.486;2024-02-15T10:50:39;-14344.58;;;-142.79;68.60
24031;BME280;12240;51.142;22.486;2024-02-15T10:53:21;-14188.28;;;-142.79;68.25
24031;BME280;12240;51.142;22.486;2024-02-15T10:55:51;-14136.17;;;-142.79;68.06
24031;BME280;12240;51.142;22.486;2024-02-15T10:58:19;-14240.38;;;-142.79;70.61
24031;BME280;12240;51.142;22.486;2024-02-15T11:00:47;-14344.58;;;-142.79;70.91
24031;BME280;12240;51.142;22.486;2024-02-15T11:03:20;-14345.19;;;-142.79;71.01
24031;BME280;12240;51.142;22.486;2024-02-15T11:05:52;-14136.17;;;-142.79;68.81
24031;BME280;12240;51.142;22.486;2024-02-15T11:08:19;-14188.28;;;-142.79;69.78
24031;BME280;12240;51.142;22.486;2024-02-15T11:10:46;-14240.38;;;-142.79;69.86
24031;BME280;12240;51.142;22.486;2024-02-15T11:13:13;-14240.38;;;-142.79;69.48
24031;BME280;12240;51.142;22.486;2024-02-15T11:15:42;-14344.58;;;-142.79;69.83
24031;BME280;12240;51.142;22.486;2024-02-15T11:18:11;-14240.38;;;-142.79;69.17
24031;BME280;12240;51.142;22.486;2024-02-15T11:23:04;-14345.19;;;-142.79;69.89
24031;BME280;12240;51.142;22.486;2024-02-15T11:25:31;-14344.88;;;-142.79;68.63
24031;BME280;12240;51.142;22.486;2024-02-15T11:30:56;-13979.87;;;-142.79;67.58
24031;BME280;12240;51.142;22.486;2024-02-15T11:33:30;-14136.17;;;-142.79;67.69
24031;BME280;12240;51.142;22.486;2024-02-15T11:36:11;-14292.48;;;-142.79;68.68
24031;BME280;12240;51.142;22.486;2024-02-15T11:38:38;-14344.58;;;-142.79;68.30
24031;BME280;12240;51.142;22.486;2024-02-15T11:41:11;-14344.58;;;-142.79;68.49
24031;BME280;12240;51.142;22.486;2024-02-15T11:46:20;-14292.48;;;-142.79;68.47
24031;BME280;12240;51.142;22.486;2024-02-15T11:48:51;-14188.28;;;-142.79;68.13
24031;BME280;12240;51.142;22.486;2024-02-15T11:51:27;-14136.17;;;-142.79;67.87
24031;BME280;12240;51.142;22.486;2024-02-15T11:54:07;-14292.48;;;-142.79;67.73
24031;BME280;12240;51.142;22.486;2024-02-15T11:56:48;-14344.58;;;-142.79;68.01
24031;BME280;12240;51.142;22.486;2024-02-15T12:03:03;-12571.78;;;-142.79;74.77
24031;BME280;12240;51.142;22.486;2024-02-15T12:05:50;-14136.17;;;-142.79;67.84
24031;BME280;12240;51.142;22.486;2024-02-15T12:08:35;-13979.87;;;-142.79;67.87
24031;BME280;12240;51.142;22.486;2024-02-15T12:11:20;-13823.55;;;-142.79;67.22
24031;BME280;12240;51.142;22.486;2024-02-15T12:14:05;-13927.76;;;-142.79;67.28
24031;BME280;12240;51.142;22.486;2024-02-15T12:17:19;-14031.97;;;-142.79;67.40
24031;BME280;12240;51.142;22.486;2024-02-15T12:20:04;-13563.02;;;-142.79;65.92
24031;BME280;12240;51.142;22.486;2024-02-15T12:25:06;-13771.44;;;-142.79;68.15
24031;BME280;12240;51.142;22.486;2024-02-15T12:27:43;-13927.76;;;-142.79;68.82
24031;BME280;12240;51.142;22.486;2024-02-15T12:30:14;-13458.79;;;-142.79;67.27
24031;BME280;12240;51.142;22.486;2024-02-15T12:32:41;-13771.45;;;-142.79;69.00
24031;BME280;12240;51.142;22.486;2024-02-15T12:35:14;-13927.76;;;-142.79;68.78
24031;BME280;12240;51.142;22.486;2024-02-15T12:38:01;-14084.08;;;-142.79;69.78
24031;BME280;12240;51.142;22.486;2024-02-15T12:40:32;-14344.58;;;-142.79;69.97
24031;BME280;12240;51.142;22.486;2024-02-15T12:42:59;-14344.58;;;-142.79;69.48
24031;BME280;12240;51.142;22.486;2024-02-15T12:45:26;-14031.97;;;-142.79;67.97
24031;BME280;12240;51.142;22.486;2024-02-15T12:47:54;-13719.34;;;-142.79;66.64
24031;BME280;12240;51.142;22.486;2024-02-15T12:50:22;-13719.34;;;-142.79;66.81